sensor_id;sensor_type;location;lat;lon;timestamp;pressure;altitude;pressure_sealevel;temperature;humidity
20955;BME280;10636;19.390;-99.256;2023-05-12T00:00:43;77633.94;;;25.38;40.41
20955;BME280;10636;19.390;-99.256;2023-05-12T00:03:12;77639.97;;;25.39;40.99
20955;BME280;10636;19.390;-99.256;2023-05-12T00:05:40;77645.22;;;25.35;41.23
20955;BME280;10636;19.390;-99.256;2023-05-12T00:08:09;77661.19;;;25.30;41.55
20955;BME280;10636;19.390;-99.256;2023-05-12T00:10:37;77661.06;;;25.26;41.80
20955;BME280;10636;19.390;-99.256;2023-05-12T00:13:06;77661.00;;;25.24;42.16
20955;BME280;10636;19.390;-99.256;2023-05-12T00:15:37;77668.22;;;25.20;42.82
20955;BME280;10636;19.390;-99.256;2023-05-12T00:18:06;77671.53;;;25.18;42.95
20955;BME280;10636;19.390;-99.256;2023-05-12T00:20:34;77670.72;;;25.14;43.23
20955;BME280;10636;19.390;-99.256;2023-05-12T00:23:03;77670.03;;;25.13;43.27
20955;BME280;10636;19.390;-99.256;2023-05-12T00:25:31;77679.41;;;25.12;43.52
20955;BME280;10636;19.390;-99.256;2023-05-12T00:28:00;77678.03;;;25.11;43.51
20955;BME280;10636;19.390;-99.256;2023-05-12T00:30:31;77667.91;;;25.10;43.29
20955;BME280;10636;19.390;-99.256;2023-05-12T00:33:01;77667.16;;;25.07;43.85
20955;BME280;10636;19.390;-99.256;2023-05-12T00:35:29;77673.13;;;25.06;43.37
20955;BME280;10636;19.390;-99.256;2023-05-12T00:37:58;77683.16;;;25.05;42.92
20955;BME280;10636;19.390;-99.256;2023-05-12T00:40:26;77687.25;;;25.06;43.61
20955;BME280;10636;19.390;-99.256;2023-05-12T00:42:55;77706.03;;;25.06;43.43
20955;BME280;10636;19.390;-99.256;2023-05-12T00:45:23;77728.78;;;25.05;43.35
20955;BME280;10636;19.390;-99.256;2023-05-12T00:47:52;77752.94;;;25.05;43.38
20955;BME280;10636;19.390;-99.256;2023-05-12T00:50:22;77762.38;;;25.06;43.56
20955;BME280;10636;19.390;-99.256;2023-05-12T00:52:51;77767.19;;;25.10;43.79
20955;BME280;10636;19.390;-99.256;2023-05-12T00:55:20;77782.53;;;25.07;44.05
20955;BME280;10636;19.390;-99.256;2023-05-12T00:57:49;77793.19;;;25.05;44.31
20955;BME280;10636;19.390;-99.256;2023-05-12T01:00:18;77775.06;;;24.86;44.17
20955;BME280;10636;19.390;-99.256;2023-05-12T01:02:46;77805.13;;;25.02;44.51
20955;BME280;10636;19.390;-99.256;2023-05-12T01:05:15;77809.28;;;25.05;44.28
20955;BME280;10636;19.390;-99.256;2023-05-12T01:07:46;77817.41;;;25.07;44.47
20955;BME280;10636;19.390;-99.256;2023-05-12T01:10:18;77825.38;;;25.05;44.29
20955;BME280;10636;19.390;-99.256;2023-05-12T01:12:50;77831.44;;;25.06;45.03
20955;BME280;10636;19.390;-99.256;2023-05-12T01:15:18;77840.19;;;25.06;45.46
20955;BME280;10636;19.390;-99.256;2023-05-12T01:17:52;77801.69;;;24.80;45.38
20955;BME280;10636;19.390;-99.256;2023-05-12T01:20:25;77823.97;;;25.04;45.30
20955;BME280;10636;19.390;-99.256;2023-05-12T01:22:56;77814.50;;;25.01;45.62
20955;BME280;10636;19.390;-99.256;2023-05-12T01:25:30;77805.06;;;25.00;45.86
20955;BME280;10636;19.390;-99.256;2023-05-12T01:28:00;77805.00;;;24.98;45.91
20955;BME280;10636;19.390;-99.256;2023-05-12T01:30:31;77810.34;;;24.98;46.22
20955;BME280;10636;19.390;-99.256;2023-05-12T01:32:59;77808.28;;;24.96;46.12
20955;BME280;10636;19.390;-99.256;2023-05-12T01:35:28;77807.63;;;24.96;46.02
20955;BME280;10636;19.390;-99.256;2023-05-12T01:37:57;77800.94;;;24.97;45.94
20955;BME280;10636;19.390;-99.256;2023-05-12T01:40:25;77798.19;;;24.95;45.78
20955;BME280;10636;19.390;-99.256;2023-05-12T01:42:54;77810.22;;;24.94;45.63
20955;BME280;10636;19.390;-99.256;2023-05-12T01:45:24;77814.19;;;24.93;45.34
20955;BME280;10636;19.390;-99.256;2023-05-12T01:47:52;77821.56;;;24.92;45.74
20955;BME280;10636;19.390;-99.256;2023-05-12T01:50:23;77826.19;;;24.90;45.72
20955;BME280;10636;19.390;-99.256;2023-05-12T01:52:56;77834.13;;;24.88;45.91
20955;BME280;10636;19.390;-99.256;2023-05-12T01:55:25;77835.50;;;24.89;45.88
20955;BME280;10636;19.390;-99.256;2023-05-12T01:57:53;77842.19;;;24.88;45.98
20955;BME280;10636;19.390;-99.256;2023-05-12T02:00:23;77834.06;;;24.86;45.85
20955;BME280;10636;19.390;-99.256;2023-05-12T02:02:52;77841.50;;;24.87;45.94
20955;BME280;10636;19.390;-99.256;2023-05-12T02:05:21;77844.19;;;24.87;45.76
20955;BME280;10636;19.390;-99.256;2023-05-12T02:07:49;77839.38;;;24.84;46.20
20955;BME280;10636;19.390;-99.256;2023-05-12T02:10:17;77852.84;;;24.86;45.84
20955;BME280;10636;19.390;-99.256;2023-05-12T02:12:49;77858.22;;;24.86;46.19
20955;BME280;10636;19.390;-99.256;2023-05-12T02:15:17;77861.59;;;24.86;46.22
20955;BME280;10636;19.390;-99.256;2023-05-12T02:17:47;77865.56;;;24.85;46.51
20955;BME280;10636;19.390;-99.256;2023-05-12T02:20:19;77872.94;;;24.85;46.34
20955;BME280;10636;19.390;-99.256;2023-05-12T02:22:47;77872.25;;;24.84;46.43
20955;BME280;10636;19.390;-99.256;2023-05-12T02:25:16;77866.88;;;24.84;45.83
20955;BME280;10636;19.390;-99.256;2023-05-12T02:27:44;77872.94;;;24.85;46.44
20955;BME280;10636;19.390;-99.256;2023-05-12T02:30:13;77875.53;;;24.83;46.01
20955;BME280;10636;19.390;-99.256;2023-05-12T02:32:41;77873.53;;;24.83;46.06
20955;BME280;10636;19.390;-99.256;2023-05-12T02:35:11;77861.63;;;24.68;46.02
20955;BME280;10636;19.390;-99.256;2023-05-12T02:37:40;77872.72;;;24.78;45.78
20955;BME280;10636;19.390;-99.256;2023-05-12T02:40:09;77880.22;;;24.82;46.12
20955;BME280;10636;19.390;-99.256;2023-05-12T02:42:38;77881.59;;;24.83;45.95
20955;BME280;10636;19.390;-99.256;2023-05-12T02:45:07;77877.47;;;24.80;45.55
20955;BME280;10636;19.390;-99.256;2023-05-12T02:47:36;77889.56;;;24.81;45.86
20955;BME280;10636;19.390;-99.256;2023-05-12T02:50:05;77878.16;;;24.81;45.71
20955;BME280;10636;19.390;-99.256;2023-05-12T02:52:36;77884.19;;;24.81;45.82
20955;BME280;10636;19.390;-99.256;2023-05-12T02:55:04;77886.19;;;24.81;45.66
20955;BME280;10636;19.390;-99.256;2023-05-12T02:57:33;77882.13;;;24.80;45.84
20955;BME280;10636;19.390;-99.256;2023-05-12T03:00:02;77853.72;;;24.55;46.10
20955;BME280;10636;19.390;-99.256;2023-05-12T03:02:31;77882.81;;;24.80;45.83
20955;BME280;10636;19.390;-99.256;2023-05-12T03:05:00;77865.59;;;24.67;46.40
20955;BME280;10636;19.390;-99.256;2023-05-12T03:07:28;77880.75;;;24.78;46.06
20955;BME280;10636;19.390;-99.256;2023-05-12T03:09:58;77883.44;;;24.78;45.78
20955;BME280;10636;19.390;-99.256;2023-05-12T03:12:27;77887.41;;;24.77;46.00
20955;BME280;10636;19.390;-99.256;2023-05-12T03:14:56;77884.66;;;24.75;45.61
20955;BME280;10636;19.390;-99.256;2023-05-12T03:17:24;77895.31;;;24.73;46.01
20955;BME280;10636;19.390;-99.256;2023-05-12T03:19:53;77895.31;;;24.73;45.68
20955;BME280;10636;19.390;-99.256;2023-05-12T03:22:21;77895.16;;;24.69;45.19
20955;BME280;10636;19.390;-99.256;2023-05-12T03:24:50;77899.28;;;24.72;45.63
20955;BME280;10636;19.390;-99.256;2023-05-12T03:27:20;77903.28;;;24.71;45.69
20955;BME280;10636;19.390;-99.256;2023-05-12T03:29:48;77907.22;;;24.68;45.57
20955;BME280;10636;19.390;-99.256;2023-05-12T03:32:17;77908.50;;;24.67;45.69
20955;BME280;10636;19.390;-99.256;2023-05-12T03:34:45;77901.06;;;24.66;45.49
20955;BME280;10636;19.390;-99.256;2023-05-12T03:37:14;77901.69;;;24.64;45.21
20955;BME280;10636;19.390;-99.256;2023-05-12T03:39:43;77907.06;;;24.64;45.56
20955;BME280;10636;19.390;-99.256;2023-05-12T03:42:12;77906.44;;;24.66;45.25
20955;BME280;10636;19.390;-99.256;2023-05-12T03:44:42;77913.16;;;24.67;45.48
20955;BME280;10636;19.390;-99.256;2023-05-12T03:47:12;77915.16;;;24.66;45.00
20955;BME280;10636;19.390;-99.256;2023-05-12T03:49:41;77919.22;;;24.67;45.59
20955;BME280;10636;19.390;-99.256;2023-05-12T03:52:09;77919.22;;;24.67;45.50
20955;BME280;10636;19.390;-99.256;2023-05-12T03:54:37;77916.31;;;24.61;45.13
20955;BME280;10636;19.390;-99.256;2023-05-12T03:57:06;77923.13;;;24.64;44.99
20955;BME280;10636;19.390;-99.256;2023-05-12T03:59:34;77927.13;;;24.63;44.93
20955;BME280;10636;19.390;-99.256;2023-05-12T04:02:04;77923.03;;;24.62;45.06
20955;BME280;10636;19.390;-99.256;2023-05-12T04:04:37;77912.31;;;24.62;45.14
20955;BME280;10636;19.390;-99.256;2023-05-12T04:07:05;77927.72;;;24.62;44.74
20955;BME280;10636;19.390;-99.256;2023-05-12T04:09:33;77926.88;;;24.57;44.80
20955;BME280;10636;19.390;-99.256;2023-05-12T04:12:02;77933.63;;;24.58;44.82
20955;BME280;10636;19.390;-99.256;2023-05-12T04:14:30;77930.94;;;24.58;44.99
20955;BME280;10636;19.390;-99.256;2023-05-12T04:16:59;77929.56;;;24.57;44.64
20955;BME280;10636;19.390;-99.256;2023-05-12T04:19:29;77926.88;;;24.57;44.83
20955;BME280;10636;19.390;-99.256;2023-05-12T04:21:57;77931.56;;;24.57;44.60
20955;BME280;10636;19.390;-99.256;2023-05-12T04:24:26;77932.78;;;24.54;44.48
20955;BME280;10636;19.390;-99.256;2023-05-12T04:26:57;77937.53;;;24.55;44.16
20955;BME280;10636;19.390;-99.256;2023-05-12T04:29:25;77942.88;;;24.55;44.47
20955;BME280;10636;19.390;-99.256;2023-05-12T04:31:54;77938.84;;;24.54;44.30
20955;BME280;10636;19.390;-99.256;2023-05-12T04:34:22;77920.13;;;24.38;44.61
20955;BME280;10636;19.390;-99.256;2023-05-12T04:36:52;77942.03;;;24.50;44.68
20955;BME280;10636;19.390;-99.256;2023-05-12T04:39:21;77941.44;;;24.52;44.63
20955;BME280;10636;19.390;-99.256;2023-05-12T04:41:49;77940.06;;;24.51;44.37
20955;BME280;10636;19.390;-99.256;2023-05-12T04:44:18;77938.06;;;24.51;44.10
20955;BME280;10636;19.390;-99.256;2023-05-12T04:46:47;77936.63;;;24.48;44.51
20955;BME280;10636;19.390;-99.256;2023-05-12T04:49:18;77936.09;;;24.52;44.49
20955;BME280;10636;19.390;-99.256;2023-05-12T04:51:47;77936.09;;;24.52;44.00
20955;BME280;10636;19.390;-99.256;2023-05-12T04:54:17;77928.13;;;24.54;43.98
20955;BME280;10636;19.390;-99.256;2023-05-12T04:56:45;77900.44;;;24.32;43.84
20955;BME280;10636;19.390;-99.256;2023-05-12T04:59:14;77931.31;;;24.50;44.38
20955;BME280;10636;19.390;-99.256;2023-05-12T05:01:43;77926.56;;;24.49;44.29
20955;BME280;10636;19.390;-99.256;2023-05-12T05:04:11;77931.88;;;24.47;44.09
20955;BME280;10636;19.390;-99.256;2023-05-12T05:06:40;77930.56;;;24.48;43.88
20955;BME280;10636;19.390;-99.256;2023-05-12T05:09:08;77933.25;;;24.48;44.08
20955;BME280;10636;19.390;-99.256;2023-05-12T05:11:38;77931.09;;;24.44;44.38
20955;BME280;10636;19.390;-99.256;2023-05-12T05:14:06;77925.19;;;24.48;43.91
20955;BME280;10636;19.390;-99.256;2023-05-12T05:16:35;77915.69;;;24.45;43.78
20955;BME280;10636;19.390;-99.256;2023-05-12T05:19:03;77879.91;;;24.20;43.63
20955;BME280;10636;19.390;-99.256;2023-05-12T05:21:32;77910.84;;;24.41;44.11
20955;BME280;10636;19.390;-99.256;2023-05-12T05:24:01;77910.25;;;24.43;44.02
20955;BME280;10636;19.390;-99.256;2023-05-12T05:26:30;77912.25;;;24.42;44.47
20955;BME280;10636;19.390;-99.256;2023-05-12T05:29:00;77906.22;;;24.42;44.10
20955;BME280;10636;19.390;-99.256;2023-05-12T05:31:29;77910.16;;;24.41;44.27
20955;BME280;10636;19.390;-99.256;2023-05-12T05:33:57;77912.84;;;24.41;44.42
20955;BME280;10636;19.390;-99.256;2023-05-12T05:36:25;77910.16;;;24.41;43.73
20955;BME280;10636;19.390;-99.256;2023-05-12T05:38:54;77908.63;;;24.36;43.80
20955;BME280;10636;19.390;-99.256;2023-05-12T05:41:22;77902.69;;;24.37;44.22
20955;BME280;10636;19.390;-99.256;2023-05-12T05:43:51;77903.97;;;24.36;44.57
20955;BME280;10636;19.390;-99.256;2023-05-12T05:46:21;77897.75;;;24.32;43.82
20955;BME280;10636;19.390;-99.256;2023-05-12T05:48:49;77901.19;;;24.34;44.03
20955;BME280;10636;19.390;-99.256;2023-05-12T05:51:18;77901.19;;;24.34;43.91
20955;BME280;10636;19.390;-99.256;2023-05-12T05:53:46;77893.06;;;24.32;44.39
20955;BME280;10636;19.390;-99.256;2023-05-12T05:56:15;77892.38;;;24.32;43.90
20955;BME280;10636;19.390;-99.256;2023-05-12T05:58:43;77882.94;;;24.31;43.75
20955;BME280;10636;19.390;-99.256;2023-05-12T06:01:12;77885.63;;;24.31;44.18
20955;BME280;10636;19.390;-99.256;2023-05-12T06:03:42;77880.25;;;24.31;43.71
20955;BME280;10636;19.390;-99.256;2023-05-12T06:06:10;77882.94;;;24.31;43.74
20955;BME280;10636;19.390;-99.256;2023-05-12T06:08:39;77880.97;;;24.31;44.21
20955;BME280;10636;19.390;-99.256;2023-05-12T06:11:07;77892.28;;;24.30;44.33
20955;BME280;10636;19.390;-99.256;2023-05-12T06:13:36;77885.56;;;24.29;44.19
20955;BME280;10636;19.390;-99.256;2023-05-12T06:16:04;77891.53;;;24.27;43.66
20955;BME280;10636;19.390;-99.256;2023-05-12T06:18:33;77888.19;;;24.26;43.51
20955;BME280;10636;19.390;-99.256;2023-05-12T06:21:05;77890.84;;;24.26;43.94
20955;BME280;10636;19.390;-99.256;2023-05-12T06:23:33;77885.41;;;24.24;44.27
20955;BME280;10636;19.390;-99.256;2023-05-12T06:26:02;77879.28;;;24.22;43.70
20955;BME280;10636;19.390;-99.256;2023-05-12T06:28:33;77881.34;;;24.23;43.82
20955;BME280;10636;19.390;-99.256;2023-05-12T06:31:01;77881.28;;;24.21;44.17
20955;BME280;10636;19.390;-99.256;2023-05-12T06:33:29;77882.59;;;24.20;44.11
20955;BME280;10636;19.390;-99.256;2023-05-12T06:35:58;77887.94;;;24.20;44.50
20955;BME280;10636;19.390;-99.256;2023-05-12T06:38:28;77881.88;;;24.20;44.01
20955;BME280;10636;19.390;-99.256;2023-05-12T06:40:56;77887.84;;;24.18;44.38
20955;BME280;10636;19.390;-99.256;2023-05-12T06:43:25;77874.16;;;24.10;43.71
20955;BME280;10636;19.390;-99.256;2023-05-12T06:45:53;77886.53;;;24.19;44.22
20955;BME280;10636;19.390;-99.256;2023-05-12T06:48:22;77885.16;;;24.18;44.38
20955;BME280;10636;19.390;-99.256;2023-05-12T06:50:52;77890.53;;;24.18;44.02
20955;BME280;10636;19.390;-99.256;2023-05-12T06:53:21;77887.78;;;24.16;43.91
20955;BME280;10636;19.390;-99.256;2023-05-12T06:55:51;77879.75;;;24.16;44.05
20955;BME280;10636;19.390;-99.256;2023-05-12T06:58:20;77881.03;;;24.15;44.15
20955;BME280;10636;19.390;-99.256;2023-05-12T07:00:48;77870.91;;;24.14;44.11
20955;BME280;10636;19.390;-99.256;2023-05-12T07:03:17;77878.97;;;24.14;43.87
20955;BME280;10636;19.390;-99.256;2023-05-12T07:05:45;77875.59;;;24.13;44.13
20955;BME280;10636;19.390;-99.256;2023-05-12T07:08:14;77875.59;;;24.13;44.40
20955;BME280;10636;19.390;-99.256;2023-05-12T07:10:42;77875.53;;;24.11;44.62
20955;BME280;10636;19.390;-99.256;2023-05-12T07:13:12;77875.53;;;24.11;44.54
20955;BME280;10636;19.390;-99.256;2023-05-12T07:15:41;77880.88;;;24.11;44.45
20955;BME280;10636;19.390;-99.256;2023-05-12T07:18:09;77869.47;;;24.11;44.57
20955;BME280;10636;19.390;-99.256;2023-05-12T07:20:38;77863.44;;;24.10;44.71
20955;BME280;10636;19.390;-99.256;2023-05-12T07:23:06;77844.97;;;24.00;44.03
20955;BME280;10636;19.390;-99.256;2023-05-12T07:25:35;77864.72;;;24.09;44.41
20955;BME280;10636;19.390;-99.256;2023-05-12T07:28:03;77863.34;;;24.08;43.99
20955;BME280;10636;19.390;-99.256;2023-05-12T07:30:33;77857.97;;;24.08;44.04
20955;BME280;10636;19.390;-99.256;2023-05-12T07:33:03;77859.28;;;24.07;44.55
20955;BME280;10636;19.390;-99.256;2023-05-12T07:35:31;77857.22;;;24.06;44.13
20955;BME280;10636;19.390;-99.256;2023-05-12T07:38:00;77859.13;;;24.03;44.38
20955;BME280;10636;19.390;-99.256;2023-05-12T07:40:29;77845.72;;;24.03;44.00
20955;BME280;10636;19.390;-99.256;2023-05-12T07:42:58;77844.34;;;24.02;43.96
20955;BME280;10636;19.390;-99.256;2023-05-12T07:45:26;77852.38;;;24.02;44.34
20955;BME280;10636;19.390;-99.256;2023-05-12T07:47:56;77849.66;;;24.00;44.76
20955;BME280;10636;19.390;-99.256;2023-05-12T07:50:25;77848.97;;;23.99;44.01
20955;BME280;10636;19.390;-99.256;2023-05-12T07:52:53;77842.19;;;23.98;44.02
20955;BME280;10636;19.390;-99.256;2023-05-12T07:55:22;77842.88;;;23.99;44.77
20955;BME280;10636;19.390;-99.256;2023-05-12T07:57:53;77835.47;;;23.97;43.98
20955;BME280;10636;19.390;-99.256;2023-05-12T08:00:22;77837.47;;;23.97;44.73
20955;BME280;10636;19.390;-99.256;2023-05-12T08:02:51;77829.44;;;23.97;43.96
20955;BME280;10636;19.390;-99.256;2023-05-12T08:05:21;77828.06;;;23.96;44.03
20955;BME280;10636;19.390;-99.256;2023-05-12T08:07:49;77829.44;;;23.97;44.18
20955;BME280;10636;19.390;-99.256;2023-05-12T08:10:18;77822.69;;;23.96;44.45
20955;BME280;10636;19.390;-99.256;2023-05-12T08:12:46;77821.31;;;23.95;44.06
20955;BME280;10636;19.390;-99.256;2023-05-12T08:15:14;77821.31;;;23.95;44.55
20955;BME280;10636;19.390;-99.256;2023-05-12T08:17:43;77823.91;;;23.93;44.15
20955;BME280;10636;19.390;-99.256;2023-05-12T08:20:12;77823.91;;;23.93;44.59
20955;BME280;10636;19.390;-99.256;2023-05-12T08:22:42;77823.91;;;23.93;44.47
20955;BME280;10636;19.390;-99.256;2023-05-12T08:25:13;77819.84;;;23.92;44.12
20955;BME280;10636;19.390;-99.256;2023-05-12T08:27:41;77827.19;;;23.91;44.65
20955;BME280;10636;19.390;-99.256;2023-05-12T08:30:11;77824.53;;;23.91;44.32
20955;BME280;10636;19.390;-99.256;2023-05-12T08:32:40;77826.44;;;23.89;44.02
20955;BME280;10636;19.390;-99.256;2023-05-12T08:35:08;77831.09;;;23.88;44.28
20955;BME280;10636;19.390;-99.256;2023-05-12T08:37:37;77821.00;;;23.87;43.97
20955;BME280;10636;19.390;-99.256;2023-05-12T08:40:12;77827.66;;;23.86;44.32
20955;BME280;10636;19.390;-99.256;2023-05-12T08:42:43;77828.34;;;23.86;44.31
20955;BME280;10636;19.390;-99.256;2023-05-12T08:45:16;77824.97;;;23.86;44.35
20955;BME280;10636;19.390;-99.256;2023-05-12T08:47:45;77823.59;;;23.85;44.10
20955;BME280;10636;19.390;-99.256;2023-05-12T08:50:13;77818.84;;;23.83;44.46
20955;BME280;10636;19.390;-99.256;2023-05-12T08:52:43;77823.59;;;23.85;44.38
20955;BME280;10636;19.390;-99.256;2023-05-12T08:55:14;77823.59;;;23.85;44.35
20955;BME280;10636;19.390;-99.256;2023-05-12T08:57:42;77804.13;;;23.66;44.28
20955;BME280;10636;19.390;-99.256;2023-05-12T09:00:14;77827.59;;;23.84;44.42
20955;BME280;10636;19.390;-99.256;2023-05-12T09:02:43;77828.88;;;23.83;44.85
20955;BME280;10636;19.390;-99.256;2023-05-12T09:05:12;77825.50;;;23.82;44.52
20955;BME280;10636;19.390;-99.256;2023-05-12T09:07:42;77824.81;;;23.82;44.67
20955;BME280;10636;19.390;-99.256;2023-05-12T09:10:16;77799.34;;;23.63;44.26
20955;BME280;10636;19.390;-99.256;2023-05-12T09:12:46;77811.03;;;23.71;44.25
20955;BME280;10636;19.390;-99.256;2023-05-12T09:15:18;77823.44;;;23.81;44.04
20955;BME280;10636;19.390;-99.256;2023-05-12T09:17:47;77821.38;;;23.79;43.96
20955;BME280;10636;19.390;-99.256;2023-05-12T09:20:15;77825.38;;;23.78;44.39
20955;BME280;10636;19.390;-99.256;2023-05-12T09:22:44;77820.53;;;23.74;44.35
20955;BME280;10636;19.390;-99.256;2023-05-12T09:25:18;77821.91;;;23.76;43.99
20955;BME280;10636;19.390;-99.256;2023-05-12T09:27:48;77816.56;;;23.76;44.07
20955;BME280;10636;19.390;-99.256;2023-05-12T09:30:27;77819.91;;;23.76;44.40
20955;BME280;10636;19.390;-99.256;2023-05-12T09:33:05;77823.22;;;23.74;44.63
20955;BME280;10636;19.390;-99.256;2023-05-12T09:35:41;77810.44;;;23.73;44.11
20955;BME280;10636;19.390;-99.256;2023-05-12T09:38:10;77816.56;;;23.76;44.33
20955;BME280;10636;19.390;-99.256;2023-05-12T09:40:40;77817.06;;;23.72;44.71
20955;BME280;10636;19.390;-99.256;2023-05-12T09:43:10;77811.03;;;23.71;44.39
20955;BME280;10636;19.390;-99.256;2023-05-12T09:45:38;77817.69;;;23.70;44.70
20955;BME280;10636;19.390;-99.256;2023-05-12T09:48:08;77821.75;;;23.71;44.26
20955;BME280;10636;19.390;-99.256;2023-05-12T09:50:43;77828.47;;;23.72;43.91
20955;BME280;10636;19.390;-99.256;2023-05-12T09:53:12;77827.09;;;23.71;44.10
20955;BME280;10636;19.390;-99.256;2023-05-12T09:55:44;77821.66;;;23.69;43.85
20955;BME280;10636;19.390;-99.256;2023-05-12T09:58:14;77820.28;;;23.68;43.68
20955;BME280;10636;19.390;-99.256;2023-05-12T10:00:43;77822.97;;;23.68;44.67
20955;BME280;10636;19.390;-99.256;2023-05-12T10:03:13;77819.63;;;23.68;44.45
20955;BME280;10636;19.390;-99.256;2023-05-12T10:05:47;77818.91;;;23.67;43.81
20955;BME280;10636;19.390;-99.256;2023-05-12T10:08:24;77825.56;;;23.66;43.69
20955;BME280;10636;19.390;-99.256;2023-05-12T10:10:55;77826.88;;;23.65;44.08
20955;BME280;10636;19.390;-99.256;2023-05-12T10:13:26;77818.13;;;23.65;44.21
20955;BME280;10636;19.390;-99.256;2023-05-12T10:15:55;77814.78;;;23.64;43.93
20955;BME280;10636;19.390;-99.256;2023-05-12T10:18:25;77824.13;;;23.63;44.27
20955;BME280;10636;19.390;-99.256;2023-05-12T10:20:53;77828.16;;;23.64;44.41
20955;BME280;10636;19.390;-99.256;2023-05-12T10:23:24;77822.81;;;23.64;44.43
20955;BME280;10636;19.390;-99.256;2023-05-12T10:25:55;77817.47;;;23.64;43.78
20955;BME280;10636;19.390;-99.256;2023-05-12T10:28:27;77822.13;;;23.64;43.76
20955;BME280;10636;19.390;-99.256;2023-05-12T10:30:56;77818.06;;;23.63;44.54
20955;BME280;10636;19.390;-99.256;2023-05-12T10:33:25;77815.19;;;23.59;44.21
20955;BME280;10636;19.390;-99.256;2023-05-12T10:35:53;77825.38;;;23.62;43.61
20955;BME280;10636;19.390;-99.256;2023-05-12T10:38:22;77820.56;;;23.59;43.98
20955;BME280;10636;19.390;-99.256;2023-05-12T10:40:52;77831.25;;;23.59;44.12
20955;BME280;10636;19.390;-99.256;2023-05-12T10:43:26;77831.94;;;23.59;43.70
20955;BME280;10636;19.390;-99.256;2023-05-12T10:46:08;77834.56;;;23.57;44.01
20955;BME280;10636;19.390;-99.256;2023-05-12T10:48:48;77842.59;;;23.57;43.68
20955;BME280;10636;19.390;-99.256;2023-05-12T10:51:19;77849.31;;;23.58;43.75
20955;BME280;10636;19.390;-99.256;2023-05-12T10:53:51;77845.16;;;23.55;43.79
20955;BME280;10636;19.390;-99.256;2023-05-12T10:56:27;77841.50;;;23.46;44.26
20955;BME280;10636;19.390;-99.256;2023-05-12T10:59:11;77859.84;;;23.54;43.86
20955;BME280;10636;19.390;-99.256;2023-05-12T11:01:41;77851.75;;;23.52;43.55
20955;BME280;10636;19.390;-99.256;2023-05-12T11:04:11;77858.38;;;23.51;43.58
20955;BME280;10636;19.390;-99.256;2023-05-12T11:06:40;77851.66;;;23.50;44.19
20955;BME280;10636;19.390;-99.256;2023-05-12T11:09:09;77850.97;;;23.49;43.96
20955;BME280;10636;19.390;-99.256;2023-05-12T11:11:38;77850.28;;;23.49;43.75
20955;BME280;10636;19.390;-99.256;2023-05-12T11:14:06;77857.00;;;23.50;43.97
20955;BME280;10636;19.390;-99.256;2023-05-12T11:16:42;77855.63;;;23.49;43.87
20955;BME280;10636;19.390;-99.256;2023-05-12T11:19:11;77869.03;;;23.49;43.65
20955;BME280;10636;19.390;-99.256;2023-05-12T11:21:40;77871.00;;;23.48;43.40
20955;BME280;10636;19.390;-99.256;2023-05-12T11:24:09;77870.22;;;23.46;43.86
20955;BME280;10636;19.390;-99.256;2023-05-12T11:26:39;77870.22;;;23.46;44.10
20955;BME280;10636;19.390;-99.256;2023-05-12T11:29:08;77871.53;;;23.45;44.23
20955;BME280;10636;19.390;-99.256;2023-05-12T11:31:37;77834.28;;;23.17;43.94
20955;BME280;10636;19.390;-99.256;2023-05-12T11:34:08;77870.75;;;23.42;43.86
20955;BME280;10636;19.390;-99.256;2023-05-12T11:36:37;77876.13;;;23.42;44.28
20955;BME280;10636;19.390;-99.256;2023-05-12T11:39:05;77876.81;;;23.43;44.25
20955;BME280;10636;19.390;-99.256;2023-05-12T11:41:34;77876.88;;;23.45;43.41
20955;BME280;10636;19.390;-99.256;2023-05-12T11:44:15;77879.56;;;23.45;43.52
20955;BME280;10636;19.390;-99.256;2023-05-12T11:46:54;77886.91;;;23.44;44.04
20955;BME280;10636;19.390;-99.256;2023-05-12T11:49:24;77880.84;;;23.44;44.34
20955;BME280;10636;19.390;-99.256;2023-05-12T11:51:53;77874.75;;;23.41;43.91
20955;BME280;10636;19.390;-99.256;2023-05-12T11:54:22;77884.84;;;23.43;43.91
20955;BME280;10636;19.390;-99.256;2023-05-12T11:56:53;77882.16;;;23.43;43.73
20955;BME280;10636;19.390;-99.256;2023-05-12T11:59:26;77877.41;;;23.41;43.46
20955;BME280;10636;19.390;-99.256;2023-05-12T12:01:55;77889.31;;;23.38;44.42
20955;BME280;10636;19.390;-99.256;2023-05-12T12:04:36;77885.97;;;23.38;43.78
20955;BME280;10636;19.390;-99.256;2023-05-12T12:07:06;77887.94;;;23.37;44.39
20955;BME280;10636;19.390;-99.256;2023-05-12T12:09:36;77884.50;;;23.35;44.97
20955;BME280;10636;19.390;-99.256;2023-05-12T12:12:07;77884.41;;;23.33;44.36
20955;BME280;10636;19.390;-99.256;2023-05-12T12:14:36;77894.34;;;23.30;44.58
20955;BME280;10636;19.390;-99.256;2023-05-12T12:17:06;77894.19;;;23.26;44.64
20955;BME280;10636;19.390;-99.256;2023-05-12T12:19:36;77893.31;;;23.21;44.52
20955;BME280;10636;19.390;-99.256;2023-05-12T12:22:05;77899.88;;;23.18;44.55
20955;BME280;10636;19.390;-99.256;2023-05-12T12:24:33;77898.41;;;23.15;44.86
20955;BME280;10636;19.390;-99.256;2023-05-12T12:27:02;77906.25;;;23.11;44.58
20955;BME280;10636;19.390;-99.256;2023-05-12T12:29:30;77911.50;;;23.09;44.75
20955;BME280;10636;19.390;-99.256;2023-05-12T12:31:59;77880.34;;;22.84;44.66
20955;BME280;10636;19.390;-99.256;2023-05-12T12:34:27;77904.53;;;23.02;44.84
20955;BME280;10636;19.390;-99.256;2023-05-12T12:36:57;77911.94;;;23.04;44.52
20955;BME280;10636;19.390;-99.256;2023-05-12T12:39:26;77906.59;;;22.88;44.35
20955;BME280;10636;19.390;-99.256;2023-05-12T12:41:54;77923.00;;;22.96;44.41
20955;BME280;10636;19.390;-99.256;2023-05-12T12:44:24;77924.88;;;22.93;44.67
20955;BME280;10636;19.390;-99.256;2023-05-12T12:46:52;77931.44;;;22.90;44.59
20955;BME280;10636;19.390;-99.256;2023-05-12T12:49:21;77929.88;;;22.85;44.21
20955;BME280;10636;19.390;-99.256;2023-05-12T12:51:49;77941.06;;;22.82;44.51